Česky Dansk Deutsch English Español Suomi Français Magyar Italiano Nederlands norsk Polski Português svenska Türkçe

 

Het Weer

Vientiane (Laos)

15:30, 19 augustus 2016 (GMT)

NWNNE
WE
SWSSE
Home            
Vientiane Nong Khai Udon Thani Loei Sayaboury Khon Kaen Sakon Nakhon Nan Luang-Prabang Thakhek Nakhon Phanom Roi Et Chaiyaphum Phrae Uttaradit Savannakhet Phitsanulok Mukdahan Lampang Nakhon Ratchasima Vinh Nakhon Sawan Chiang Rai

Om een weerknop op uw website of weblog te plaatsen, copieer onderstaande code en plak die in uw pagina. In het eerste vakje staat HTML-code, in het tweede vakje UBB-code.


Add to Google

Details

Wind speed:1 bf, 2 kn, 1.0 m/s, 2.3 miles/h, 3.7 km/h
Wind direction:SE, 140°
Visibility: 3000 m, 3.0 km, 9843 ft, 1.9 miles
Clouds:Durchbrochene Bewölkung at 1000 ft, 305 m
Geschlossene Wolkendecke at 8300 ft, 2530 m
Het Weer:light rain
Temperature:24°C, 75°F
Gefühlte Temperatur:22°C, 72°F
Dew-point:24°C, 75°F
Atmospheric pressure:999 hPa, 749.3 mmHg, 29.50 inHg, 0.986 atm
Relative humidity:100.0 %
METAR:VLVT 191530Z 14002KT 3000 -RA BKN010 OVC083 24/24 Q0999 NOSIG

Snelkoppelingen

Actuele weersinformatie van de hele wereld. Voeg locaties toe met het plus (+) symbool. Deze snelkoppelingen kunnen worden toegevoegd aan Google.

Lid van de Technetium groep

website free tracking
StatCounter NetStat W3C Validator

04-08-2020 01:00:53
astro.technetium.be money.technetium.be phote.technetium.be tafeltennistafel.technetium.be www.ligfiets.net